sensor_id;sensor_type;location;lat;lon;timestamp;P1;durP1;ratioP1;P2;durP2;ratioP2
78222;SDS011;67497;53.058;21.618;2023-03-01T00:01:59;67.75;;;19.98;;
78222;SDS011;67497;53.058;21.618;2023-03-01T00:03:59;80.63;;;19.77;;
78222;SDS011;67497;53.058;21.618;2023-03-01T00:06:00;67.45;;;19.60;;
78222;SDS011;67497;53.058;21.618;2023-03-01T00:08:01;68.72;;;20.50;;
78222;SDS011;67497;53.058;21.618;2023-03-01T00:10:02;75.30;;;19.77;;
78222;SDS011;67497;53.058;21.618;2023-03-01T00:12:03;73.35;;;20.85;;
78222;SDS011;67497;53.058;21.618;2023-03-01T00:14:04;73.53;;;19.88;;
78222;SDS011;67497;53.058;21.618;2023-03-01T00:16:08;69.65;;;21.38;;
78222;SDS011;67497;53.058;21.618;2023-03-01T00:18:10;75.80;;;20.38;;
78222;SDS011;67497;53.058;21.618;2023-03-01T00:20:11;75.25;;;22.67;;
78222;SDS011;67497;53.058;21.618;2023-03-01T00:22:11;77.88;;;22.38;;
78222;SDS011;67497;53.058;21.618;2023-03-01T00:24:12;61.95;;;21.00;;
78222;SDS011;67497;53.058;21.618;2023-03-01T00:26:13;80.32;;;20.33;;
78222;SDS011;67497;53.058;21.618;2023-03-01T00:28:14;78.28;;;24.23;;
78222;SDS011;67497;53.058;21.618;2023-03-01T00:30:16;76.97;;;23.40;;
78222;SDS011;67497;53.058;21.618;2023-03-01T00:32:16;79.88;;;23.85;;
78222;SDS011;67497;53.058;21.618;2023-03-01T00:34:17;74.05;;;21.52;;
78222;SDS011;67497;53.058;21.618;2023-03-01T00:36:17;77.38;;;21.35;;
78222;SDS011;67497;53.058;21.618;2023-03-01T00:38:18;77.30;;;22.95;;
78222;SDS011;67497;53.058;21.618;2023-03-01T00:40:18;83.05;;;23.33;;
78222;SDS011;67497;53.058;21.618;2023-03-01T00:42:19;72.00;;;22.25;;
78222;SDS011;67497;53.058;21.618;2023-03-01T00:44:19;74.60;;;21.90;;
78222;SDS011;67497;53.058;21.618;2023-03-01T00:46:21;78.20;;;23.45;;
78222;SDS011;67497;53.058;21.618;2023-03-01T00:48:23;79.97;;;22.15;;
78222;SDS011;67497;53.058;21.618;2023-03-01T00:50:24;95.90;;;25.08;;
78222;SDS011;67497;53.058;21.618;2023-03-01T00:52:24;97.30;;;24.55;;
78222;SDS011;67497;53.058;21.618;2023-03-01T00:54:25;76.70;;;23.65;;
78222;SDS011;67497;53.058;21.618;2023-03-01T00:56:25;89.65;;;23.63;;
78222;SDS011;67497;53.058;21.618;2023-03-01T00:58:26;93.93;;;26.13;;
78222;SDS011;67497;53.058;21.618;2023-03-01T01:00:27;82.70;;;24.20;;
78222;SDS011;67497;53.058;21.618;2023-03-01T01:02:27;87.95;;;23.35;;
78222;SDS011;67497;53.058;21.618;2023-03-01T01:04:28;85.00;;;25.77;;
78222;SDS011;67497;53.058;21.618;2023-03-01T01:06:33;83.60;;;24.55;;
78222;SDS011;67497;53.058;21.618;2023-03-01T01:08:36;84.30;;;23.63;;
78222;SDS011;67497;53.058;21.618;2023-03-01T01:10:36;72.63;;;23.80;;
78222;SDS011;67497;53.058;21.618;2023-03-01T01:12:37;77.55;;;24.52;;
78222;SDS011;67497;53.058;21.618;2023-03-01T01:14:37;81.72;;;25.80;;
78222;SDS011;67497;53.058;21.618;2023-03-01T01:16:38;78.63;;;23.17;;
78222;SDS011;67497;53.058;21.618;2023-03-01T01:18:39;72.32;;;23.50;;
78222;SDS011;67497;53.058;21.618;2023-03-01T01:20:40;72.28;;;24.63;;
78222;SDS011;67497;53.058;21.618;2023-03-01T01:22:40;74.22;;;23.02;;
78222;SDS011;67497;53.058;21.618;2023-03-01T01:24:41;83.93;;;25.20;;
78222;SDS011;67497;53.058;21.618;2023-03-01T01:26:42;76.70;;;22.42;;
78222;SDS011;67497;53.058;21.618;2023-03-01T01:28:43;87.07;;;24.52;;
78222;SDS011;67497;53.058;21.618;2023-03-01T01:30:44;78.43;;;24.02;;
78222;SDS011;67497;53.058;21.618;2023-03-01T01:32:45;73.55;;;22.55;;
78222;SDS011;67497;53.058;21.618;2023-03-01T01:34:46;63.97;;;20.35;;
78222;SDS011;67497;53.058;21.618;2023-03-01T01:36:50;76.80;;;22.67;;
78222;SDS011;67497;53.058;21.618;2023-03-01T01:38:53;73.05;;;21.85;;
78222;SDS011;67497;53.058;21.618;2023-03-01T01:40:54;74.55;;;23.98;;
78222;SDS011;67497;53.058;21.618;2023-03-01T01:42:54;76.50;;;20.58;;
78222;SDS011;67497;53.058;21.618;2023-03-01T01:47:34;64.93;;;20.90;;
78222;SDS011;67497;53.058;21.618;2023-03-01T01:49:38;66.72;;;22.02;;
78222;SDS011;67497;53.058;21.618;2023-03-01T01:51:45;62.63;;;20.45;;
78222;SDS011;67497;53.058;21.618;2023-03-01T01:53:50;63.75;;;19.35;;
78222;SDS011;67497;53.058;21.618;2023-03-01T01:55:54;66.43;;;21.65;;
78222;SDS011;67497;53.058;21.618;2023-03-01T01:57:59;63.40;;;19.15;;
78222;SDS011;67497;53.058;21.618;2023-03-01T02:00:06;59.13;;;19.15;;
78222;SDS011;67497;53.058;21.618;2023-03-01T02:02:09;58.78;;;20.77;;
78222;SDS011;67497;53.058;21.618;2023-03-01T02:04:11;58.03;;;20.30;;
78222;SDS011;67497;53.058;21.618;2023-03-01T02:09:23;57.15;;;18.40;;
78222;SDS011;67497;53.058;21.618;2023-03-01T02:11:24;62.42;;;19.42;;
78222;SDS011;67497;53.058;21.618;2023-03-01T02:13:26;65.03;;;20.60;;
78222;SDS011;67497;53.058;21.618;2023-03-01T02:17:31;61.45;;;19.55;;
78222;SDS011;67497;53.058;21.618;2023-03-01T02:26:48;62.97;;;18.63;;
78222;SDS011;67497;53.058;21.618;2023-03-01T02:28:51;59.42;;;20.95;;
78222;SDS011;67497;53.058;21.618;2023-03-01T02:30:52;61.20;;;20.30;;
78222;SDS011;67497;53.058;21.618;2023-03-01T02:33:12;68.95;;;22.00;;
78222;SDS011;67497;53.058;21.618;2023-03-01T02:35:13;60.40;;;20.10;;
78222;SDS011;67497;53.058;21.618;2023-03-01T02:37:16;65.63;;;19.63;;
78222;SDS011;67497;53.058;21.618;2023-03-01T02:39:31;67.55;;;20.73;;
78222;SDS011;67497;53.058;21.618;2023-03-01T02:41:38;70.38;;;21.20;;
78222;SDS011;67497;53.058;21.618;2023-03-01T02:43:41;72.72;;;21.58;;
78222;SDS011;67497;53.058;21.618;2023-03-01T02:45:51;70.82;;;21.73;;
78222;SDS011;67497;53.058;21.618;2023-03-01T02:47:54;65.82;;;20.30;;
78222;SDS011;67497;53.058;21.618;2023-03-01T02:54:25;64.88;;;20.38;;
78222;SDS011;67497;53.058;21.618;2023-03-01T02:56:32;64.25;;;20.92;;
78222;SDS011;67497;53.058;21.618;2023-03-01T02:58:33;62.42;;;19.38;;
78222;SDS011;67497;53.058;21.618;2023-03-01T03:00:45;71.10;;;20.60;;
78222;SDS011;67497;53.058;21.618;2023-03-01T03:02:47;65.70;;;19.92;;
78222;SDS011;67497;53.058;21.618;2023-03-01T03:04:49;67.07;;;20.38;;
78222;SDS011;67497;53.058;21.618;2023-03-01T03:06:50;66.95;;;22.02;;
78222;SDS011;67497;53.058;21.618;2023-03-01T03:08:51;74.70;;;23.00;;
78222;SDS011;67497;53.058;21.618;2023-03-01T03:10:51;58.83;;;19.80;;
78222;SDS011;67497;53.058;21.618;2023-03-01T03:12:53;63.90;;;20.67;;
78222;SDS011;67497;53.058;21.618;2023-03-01T03:14:58;67.38;;;21.77;;
78222;SDS011;67497;53.058;21.618;2023-03-01T03:16:59;66.15;;;21.35;;
78222;SDS011;67497;53.058;21.618;2023-03-01T03:18:59;61.58;;;21.20;;
78222;SDS011;67497;53.058;21.618;2023-03-01T03:21:07;68.60;;;20.60;;
78222;SDS011;67497;53.058;21.618;2023-03-01T03:23:10;68.40;;;21.13;;
78222;SDS011;67497;53.058;21.618;2023-03-01T03:25:11;61.92;;;20.80;;
78222;SDS011;67497;53.058;21.618;2023-03-01T03:27:12;62.10;;;20.55;;
78222;SDS011;67497;53.058;21.618;2023-03-01T03:29:12;62.90;;;19.92;;
78222;SDS011;67497;53.058;21.618;2023-03-01T03:31:13;63.88;;;22.05;;
78222;SDS011;67497;53.058;21.618;2023-03-01T03:33:13;62.45;;;22.98;;
78222;SDS011;67497;53.058;21.618;2023-03-01T03:35:14;75.85;;;21.55;;
78222;SDS011;67497;53.058;21.618;2023-03-01T03:37:14;67.55;;;20.33;;
78222;SDS011;67497;53.058;21.618;2023-03-01T03:39:33;74.13;;;22.00;;
78222;SDS011;67497;53.058;21.618;2023-03-01T03:41:34;60.78;;;21.05;;
78222;SDS011;67497;53.058;21.618;2023-03-01T03:43:35;73.70;;;23.67;;
78222;SDS011;67497;53.058;21.618;2023-03-01T03:45:37;64.20;;;21.08;;
78222;SDS011;67497;53.058;21.618;2023-03-01T03:47:38;68.05;;;21.48;;
78222;SDS011;67497;53.058;21.618;2023-03-01T03:49:38;72.25;;;23.08;;
78222;SDS011;67497;53.058;21.618;2023-03-01T03:51:39;65.68;;;22.48;;
78222;SDS011;67497;53.058;21.618;2023-03-01T03:53:39;65.28;;;22.80;;
78222;SDS011;67497;53.058;21.618;2023-03-01T03:55:40;71.90;;;21.40;;
78222;SDS011;67497;53.058;21.618;2023-03-01T03:57:41;70.10;;;21.05;;
78222;SDS011;67497;53.058;21.618;2023-03-01T03:59:41;74.90;;;21.75;;
78222;SDS011;67497;53.058;21.618;2023-03-01T04:01:42;56.00;;;21.42;;
78222;SDS011;67497;53.058;21.618;2023-03-01T04:05:47;71.45;;;22.05;;
78222;SDS011;67497;53.058;21.618;2023-03-01T04:07:50;84.00;;;23.30;;
78222;SDS011;67497;53.058;21.618;2023-03-01T04:10:02;80.03;;;22.55;;
78222;SDS011;67497;53.058;21.618;2023-03-01T04:12:03;78.40;;;23.95;;
78222;SDS011;67497;53.058;21.618;2023-03-01T04:14:04;66.20;;;21.08;;
78222;SDS011;67497;53.058;21.618;2023-03-01T04:16:04;73.70;;;23.58;;
78222;SDS011;67497;53.058;21.618;2023-03-01T04:18:05;67.78;;;23.98;;
78222;SDS011;67497;53.058;21.618;2023-03-01T04:20:08;71.90;;;22.02;;
78222;SDS011;67497;53.058;21.618;2023-03-01T04:22:12;83.43;;;23.95;;
78222;SDS011;67497;53.058;21.618;2023-03-01T04:24:18;73.82;;;23.20;;
78222;SDS011;67497;53.058;21.618;2023-03-01T04:26:19;68.72;;;21.40;;
78222;SDS011;67497;53.058;21.618;2023-03-01T04:28:26;80.13;;;22.98;;
78222;SDS011;67497;53.058;21.618;2023-03-01T04:30:28;75.85;;;23.55;;
78222;SDS011;67497;53.058;21.618;2023-03-01T04:32:29;68.88;;;22.42;;
78222;SDS011;67497;53.058;21.618;2023-03-01T04:34:29;67.95;;;21.83;;
78222;SDS011;67497;53.058;21.618;2023-03-01T04:36:30;66.40;;;21.88;;
78222;SDS011;67497;53.058;21.618;2023-03-01T04:38:30;68.40;;;22.42;;
78222;SDS011;67497;53.058;21.618;2023-03-01T04:40:31;74.45;;;23.25;;
78222;SDS011;67497;53.058;21.618;2023-03-01T04:42:31;67.93;;;22.45;;
78222;SDS011;67497;53.058;21.618;2023-03-01T04:44:32;70.20;;;20.55;;
78222;SDS011;67497;53.058;21.618;2023-03-01T04:46:33;71.78;;;22.35;;
78222;SDS011;67497;53.058;21.618;2023-03-01T04:48:33;78.53;;;24.05;;
78222;SDS011;67497;53.058;21.618;2023-03-01T04:50:34;78.57;;;21.63;;
78222;SDS011;67497;53.058;21.618;2023-03-01T04:52:35;77.32;;;22.60;;
78222;SDS011;67497;53.058;21.618;2023-03-01T04:54:35;73.97;;;21.77;;
78222;SDS011;67497;53.058;21.618;2023-03-01T04:56:36;72.15;;;22.05;;
78222;SDS011;67497;53.058;21.618;2023-03-01T04:58:36;76.00;;;22.67;;
78222;SDS011;67497;53.058;21.618;2023-03-01T05:00:37;68.28;;;22.23;;
78222;SDS011;67497;53.058;21.618;2023-03-01T05:02:37;63.90;;;20.42;;
78222;SDS011;67497;53.058;21.618;2023-03-01T05:04:38;76.20;;;21.10;;
78222;SDS011;67497;53.058;21.618;2023-03-01T05:06:38;73.88;;;22.45;;
78222;SDS011;67497;53.058;21.618;2023-03-01T05:08:39;83.88;;;21.77;;
78222;SDS011;67497;53.058;21.618;2023-03-01T05:10:41;74.07;;;21.70;;
78222;SDS011;67497;53.058;21.618;2023-03-01T05:12:42;64.10;;;21.45;;
78222;SDS011;67497;53.058;21.618;2023-03-01T05:14:42;58.67;;;20.88;;
78222;SDS011;67497;53.058;21.618;2023-03-01T05:16:43;74.28;;;21.80;;
78222;SDS011;67497;53.058;21.618;2023-03-01T05:18:43;79.47;;;22.17;;
78222;SDS011;67497;53.058;21.618;2023-03-01T05:20:44;74.90;;;21.95;;
78222;SDS011;67497;53.058;21.618;2023-03-01T05:22:44;55.42;;;19.73;;
78222;SDS011;67497;53.058;21.618;2023-03-01T05:24:45;72.93;;;21.15;;
78222;SDS011;67497;53.058;21.618;2023-03-01T05:26:46;67.38;;;21.42;;
78222;SDS011;67497;53.058;21.618;2023-03-01T05:28:48;65.10;;;23.23;;
78222;SDS011;67497;53.058;21.618;2023-03-01T05:30:48;73.53;;;21.15;;
78222;SDS011;67497;53.058;21.618;2023-03-01T05:32:51;69.70;;;23.33;;
78222;SDS011;67497;53.058;21.618;2023-03-01T05:34:55;69.57;;;21.20;;
78222;SDS011;67497;53.058;21.618;2023-03-01T05:36:56;75.85;;;22.42;;
78222;SDS011;67497;53.058;21.618;2023-03-01T05:38:56;75.45;;;23.00;;
78222;SDS011;67497;53.058;21.618;2023-03-01T05:40:57;70.45;;;21.70;;
78222;SDS011;67497;53.058;21.618;2023-03-01T05:42:57;66.55;;;20.58;;
78222;SDS011;67497;53.058;21.618;2023-03-01T05:44:58;63.38;;;20.10;;
78222;SDS011;67497;53.058;21.618;2023-03-01T05:46:58;73.25;;;22.13;;
78222;SDS011;67497;53.058;21.618;2023-03-01T05:48:59;72.78;;;21.90;;
78222;SDS011;67497;53.058;21.618;2023-03-01T05:51:00;72.07;;;21.52;;
78222;SDS011;67497;53.058;21.618;2023-03-01T05:53:02;68.07;;;23.30;;
78222;SDS011;67497;53.058;21.618;2023-03-01T05:55:05;74.88;;;21.40;;
78222;SDS011;67497;53.058;21.618;2023-03-01T05:57:06;61.85;;;21.55;;
78222;SDS011;67497;53.058;21.618;2023-03-01T05:59:07;64.60;;;20.85;;
78222;SDS011;67497;53.058;21.618;2023-03-01T06:01:11;62.67;;;21.25;;
78222;SDS011;67497;53.058;21.618;2023-03-01T06:03:13;64.57;;;21.77;;
78222;SDS011;67497;53.058;21.618;2023-03-01T06:05:16;66.60;;;21.63;;
78222;SDS011;67497;53.058;21.618;2023-03-01T06:07:16;72.45;;;21.23;;
78222;SDS011;67497;53.058;21.618;2023-03-01T06:09:17;65.88;;;21.58;;
78222;SDS011;67497;53.058;21.618;2023-03-01T06:11:17;76.05;;;24.30;;
78222;SDS011;67497;53.058;21.618;2023-03-01T06:13:18;70.20;;;21.95;;
78222;SDS011;67497;53.058;21.618;2023-03-01T06:15:19;73.00;;;23.30;;
78222;SDS011;67497;53.058;21.618;2023-03-01T06:17:19;58.28;;;20.60;;
78222;SDS011;67497;53.058;21.618;2023-03-01T06:19:20;68.50;;;22.65;;
78222;SDS011;67497;53.058;21.618;2023-03-01T06:21:21;73.93;;;21.98;;
78222;SDS011;67497;53.058;21.618;2023-03-01T06:23:22;78.13;;;22.80;;
78222;SDS011;67497;53.058;21.618;2023-03-01T06:25:24;76.10;;;21.98;;
78222;SDS011;67497;53.058;21.618;2023-03-01T06:27:26;76.78;;;23.65;;
78222;SDS011;67497;53.058;21.618;2023-03-01T06:29:26;69.43;;;22.48;;
78222;SDS011;67497;53.058;21.618;2023-03-01T06:31:27;75.97;;;24.50;;
78222;SDS011;67497;53.058;21.618;2023-03-01T06:33:28;69.35;;;22.15;;
78222;SDS011;67497;53.058;21.618;2023-03-01T06:35:29;77.55;;;23.27;;
78222;SDS011;67497;53.058;21.618;2023-03-01T06:37:31;71.90;;;22.30;;
78222;SDS011;67497;53.058;21.618;2023-03-01T06:39:31;82.15;;;23.42;;
78222;SDS011;67497;53.058;21.618;2023-03-01T06:41:32;83.93;;;24.35;;
78222;SDS011;67497;53.058;21.618;2023-03-01T06:43:33;79.47;;;25.48;;
78222;SDS011;67497;53.058;21.618;2023-03-01T06:45:34;84.15;;;24.52;;
78222;SDS011;67497;53.058;21.618;2023-03-01T06:47:34;63.92;;;21.88;;
78222;SDS011;67497;53.058;21.618;2023-03-01T06:49:35;76.40;;;25.50;;
78222;SDS011;67497;53.058;21.618;2023-03-01T06:51:36;78.00;;;23.50;;
78222;SDS011;67497;53.058;21.618;2023-03-01T06:53:36;66.13;;;21.48;;
78222;SDS011;67497;53.058;21.618;2023-03-01T06:55:37;76.05;;;23.30;;
78222;SDS011;67497;53.058;21.618;2023-03-01T06:57:37;75.10;;;21.85;;
78222;SDS011;67497;53.058;21.618;2023-03-01T06:59:38;70.57;;;23.00;;
78222;SDS011;67497;53.058;21.618;2023-03-01T07:01:38;73.07;;;22.70;;
78222;SDS011;67497;53.058;21.618;2023-03-01T07:03:39;76.53;;;22.65;;
78222;SDS011;67497;53.058;21.618;2023-03-01T07:05:39;77.70;;;24.33;;
78222;SDS011;67497;53.058;21.618;2023-03-01T07:07:40;82.78;;;22.65;;
78222;SDS011;67497;53.058;21.618;2023-03-01T07:09:41;71.80;;;22.27;;
78222;SDS011;67497;53.058;21.618;2023-03-01T07:11:41;70.32;;;21.25;;
78222;SDS011;67497;53.058;21.618;2023-03-01T07:13:41;75.10;;;22.38;;
78222;SDS011;67497;53.058;21.618;2023-03-01T07:15:42;76.82;;;24.40;;
78222;SDS011;67497;53.058;21.618;2023-03-01T07:17:43;77.15;;;22.25;;
78222;SDS011;67497;53.058;21.618;2023-03-01T07:19:44;65.10;;;21.48;;
78222;SDS011;67497;53.058;21.618;2023-03-01T07:21:45;67.57;;;21.15;;
78222;SDS011;67497;53.058;21.618;2023-03-01T07:23:47;73.28;;;22.23;;
78222;SDS011;67497;53.058;21.618;2023-03-01T07:25:54;72.25;;;21.40;;
78222;SDS011;67497;53.058;21.618;2023-03-01T07:27:55;73.22;;;21.05;;
78222;SDS011;67497;53.058;21.618;2023-03-01T07:29:55;58.78;;;21.00;;
78222;SDS011;67497;53.058;21.618;2023-03-01T07:31:56;69.30;;;20.75;;
78222;SDS011;67497;53.058;21.618;2023-03-01T07:33:56;74.10;;;22.98;;
78222;SDS011;67497;53.058;21.618;2023-03-01T07:35:58;81.60;;;22.90;;
78222;SDS011;67497;53.058;21.618;2023-03-01T07:38:02;75.03;;;21.45;;
78222;SDS011;67497;53.058;21.618;2023-03-01T07:40:02;71.93;;;20.52;;
78222;SDS011;67497;53.058;21.618;2023-03-01T07:42:03;71.18;;;21.98;;
78222;SDS011;67497;53.058;21.618;2023-03-01T07:44:04;70.63;;;22.23;;
78222;SDS011;67497;53.058;21.618;2023-03-01T07:46:05;77.35;;;24.65;;
78222;SDS011;67497;53.058;21.618;2023-03-01T07:48:06;64.13;;;18.83;;
78222;SDS011;67497;53.058;21.618;2023-03-01T07:50:07;75.65;;;20.08;;
78222;SDS011;67497;53.058;21.618;2023-03-01T07:52:09;78.70;;;23.02;;
78222;SDS011;67497;53.058;21.618;2023-03-01T07:54:12;72.30;;;23.17;;
78222;SDS011;67497;53.058;21.618;2023-03-01T07:56:14;67.55;;;21.02;;
78222;SDS011;67497;53.058;21.618;2023-03-01T07:58:17;64.30;;;21.95;;
78222;SDS011;67497;53.058;21.618;2023-03-01T08:00:18;68.28;;;19.92;;
78222;SDS011;67497;53.058;21.618;2023-03-01T08:02:18;70.30;;;20.90;;
78222;SDS011;67497;53.058;21.618;2023-03-01T08:04:19;70.18;;;23.33;;
78222;SDS011;67497;53.058;21.618;2023-03-01T08:06:19;63.83;;;20.65;;
78222;SDS011;67497;53.058;21.618;2023-03-01T08:08:20;72.43;;;20.83;;
78222;SDS011;67497;53.058;21.618;2023-03-01T08:10:20;68.57;;;20.52;;
78222;SDS011;67497;53.058;21.618;2023-03-01T08:12:21;73.13;;;21.98;;
78222;SDS011;67497;53.058;21.618;2023-03-01T08:14:21;64.00;;;20.73;;
78222;SDS011;67497;53.058;21.618;2023-03-01T08:16:22;79.10;;;22.45;;
78222;SDS011;67497;53.058;21.618;2023-03-01T08:18:23;63.30;;;21.15;;
78222;SDS011;67497;53.058;21.618;2023-03-01T08:20:25;68.63;;;20.85;;
78222;SDS011;67497;53.058;21.618;2023-03-01T08:22:25;62.13;;;20.63;;
78222;SDS011;67497;53.058;21.618;2023-03-01T08:24:26;64.68;;;21.33;;
78222;SDS011;67497;53.058;21.618;2023-03-01T08:26:26;72.15;;;22.50;;
78222;SDS011;67497;53.058;21.618;2023-03-01T08:28:27;72.00;;;20.63;;
78222;SDS011;67497;53.058;21.618;2023-03-01T08:30:27;75.80;;;24.30;;
78222;SDS011;67497;53.058;21.618;2023-03-01T08:32:28;69.10;;;21.40;;
78222;SDS011;67497;53.058;21.618;2023-03-01T08:34:29;62.58;;;20.70;;
78222;SDS011;67497;53.058;21.618;2023-03-01T08:36:33;61.58;;;20.42;;
78222;SDS011;67497;53.058;21.618;2023-03-01T08:38:37;62.17;;;22.27;;
78222;SDS011;67497;53.058;21.618;2023-03-01T08:40:37;64.53;;;19.70;;
78222;SDS011;67497;53.058;21.618;2023-03-01T08:42:37;64.40;;;21.35;;
78222;SDS011;67497;53.058;21.618;2023-03-01T08:44:38;66.95;;;20.23;;
78222;SDS011;67497;53.058;21.618;2023-03-01T08:46:40;61.55;;;21.77;;
78222;SDS011;67497;53.058;21.618;2023-03-01T08:48:41;67.22;;;19.67;;
78222;SDS011;67497;53.058;21.618;2023-03-01T08:50:43;68.65;;;21.05;;
78222;SDS011;67497;53.058;21.618;2023-03-01T08:52:43;73.30;;;21.10;;
78222;SDS011;67497;53.058;21.618;2023-03-01T08:54:44;68.65;;;20.35;;
78222;SDS011;67497;53.058;21.618;2023-03-01T08:56:44;74.28;;;23.17;;
78222;SDS011;67497;53.058;21.618;2023-03-01T08:58:46;69.05;;;20.85;;
78222;SDS011;67497;53.058;21.618;2023-03-01T09:00:48;65.07;;;18.27;;
78222;SDS011;67497;53.058;21.618;2023-03-01T09:02:48;75.32;;;22.13;;
78222;SDS011;67497;53.058;21.618;2023-03-01T09:04:48;64.13;;;19.58;;
78222;SDS011;67497;53.058;21.618;2023-03-01T09:06:49;78.75;;;22.73;;
78222;SDS011;67497;53.058;21.618;2023-03-01T09:08:50;60.58;;;18.55;;
78222;SDS011;67497;53.058;21.618;2023-03-01T09:10:50;60.58;;;18.35;;
78222;SDS011;67497;53.058;21.618;2023-03-01T09:12:51;67.50;;;20.80;;
78222;SDS011;67497;53.058;21.618;2023-03-01T09:14:52;63.75;;;19.35;;
78222;SDS011;67497;53.058;21.618;2023-03-01T09:16:52;63.67;;;18.65;;
78222;SDS011;67497;53.058;21.618;2023-03-01T09:18:53;62.17;;;20.80;;
78222;SDS011;67497;53.058;21.618;2023-03-01T09:21:00;74.70;;;21.08;;
78222;SDS011;67497;53.058;21.618;2023-03-01T09:23:12;63.55;;;20.33;;
78222;SDS011;67497;53.058;21.618;2023-03-01T09:25:13;62.90;;;19.67;;
78222;SDS011;67497;53.058;21.618;2023-03-01T09:27:13;60.08;;;18.60;;
78222;SDS011;67497;53.058;21.618;2023-03-01T09:29:15;59.83;;;18.10;;
78222;SDS011;67497;53.058;21.618;2023-03-01T09:31:16;51.92;;;16.08;;
78222;SDS011;67497;53.058;21.618;2023-03-01T09:33:18;58.35;;;17.25;;
78222;SDS011;67497;53.058;21.618;2023-03-01T09:35:18;54.47;;;18.30;;
78222;SDS011;67497;53.058;21.618;2023-03-01T09:37:20;58.30;;;17.52;;
78222;SDS011;67497;53.058;21.618;2023-03-01T09:39:20;67.38;;;20.65;;
78222;SDS011;67497;53.058;21.618;2023-03-01T09:45:43;61.85;;;18.20;;
78222;SDS011;67497;53.058;21.618;2023-03-01T09:47:50;57.63;;;18.33;;
78222;SDS011;67497;53.058;21.618;2023-03-01T09:50:02;58.47;;;16.13;;
78222;SDS011;67497;53.058;21.618;2023-03-01T09:52:19;58.75;;;16.50;;
78222;SDS011;67497;53.058;21.618;2023-03-01T09:54:29;61.45;;;18.33;;
78222;SDS011;67497;53.058;21.618;2023-03-01T09:56:34;62.88;;;17.98;;
78222;SDS011;67497;53.058;21.618;2023-03-01T09:58:39;60.08;;;17.58;;
78222;SDS011;67497;53.058;21.618;2023-03-01T10:00:42;59.05;;;18.48;;
78222;SDS011;67497;53.058;21.618;2023-03-01T10:02:45;57.92;;;19.35;;
78222;SDS011;67497;53.058;21.618;2023-03-01T10:04:55;53.58;;;15.88;;
78222;SDS011;67497;53.058;21.618;2023-03-01T10:09:17;58.88;;;16.50;;
78222;SDS011;67497;53.058;21.618;2023-03-01T10:13:29;52.85;;;15.82;;
78222;SDS011;67497;53.058;21.618;2023-03-01T10:15:42;57.30;;;16.00;;
78222;SDS011;67497;53.058;21.618;2023-03-01T10:17:54;52.53;;;16.08;;
78222;SDS011;67497;53.058;21.618;2023-03-01T10:20:10;54.13;;;16.42;;
78222;SDS011;67497;53.058;21.618;2023-03-01T10:22:28;56.67;;;16.17;;
78222;SDS011;67497;53.058;21.618;2023-03-01T10:24:32;52.78;;;16.35;;
78222;SDS011;67497;53.058;21.618;2023-03-01T10:26:54;46.83;;;15.55;;
78222;SDS011;67497;53.058;21.618;2023-03-01T10:29:06;51.60;;;14.82;;
78222;SDS011;67497;53.058;21.618;2023-03-01T10:31:13;48.92;;;15.07;;
78222;SDS011;67497;53.058;21.618;2023-03-01T10:33:20;60.38;;;17.58;;
78222;SDS011;67497;53.058;21.618;2023-03-01T10:35:31;54.72;;;16.38;;
78222;SDS011;67497;53.058;21.618;2023-03-01T10:37:34;44.28;;;14.40;;
78222;SDS011;67497;53.058;21.618;2023-03-01T10:42:00;50.92;;;15.02;;
78222;SDS011;67497;53.058;21.618;2023-03-01T10:44:03;50.25;;;15.88;;
78222;SDS011;67497;53.058;21.618;2023-03-01T10:46:21;44.80;;;14.50;;
78222;SDS011;67497;53.058;21.618;2023-03-01T10:48:25;48.35;;;14.30;;
78222;SDS011;67497;53.058;21.618;2023-03-01T10:50:28;48.97;;;15.55;;
78222;SDS011;67497;53.058;21.618;2023-03-01T10:52:33;45.17;;;14.80;;
78222;SDS011;67497;53.058;21.618;2023-03-01T10:54:35;44.45;;;14.73;;
78222;SDS011;67497;53.058;21.618;2023-03-01T10:56:46;42.30;;;14.43;;
78222;SDS011;67497;53.058;21.618;2023-03-01T10:59:04;42.60;;;15.55;;
78222;SDS011;67497;53.058;21.618;2023-03-01T11:03:13;41.35;;;13.90;;
78222;SDS011;67497;53.058;21.618;2023-03-01T11:05:18;43.08;;;13.73;;
78222;SDS011;67497;53.058;21.618;2023-03-01T11:07:26;47.58;;;15.30;;
78222;SDS011;67497;53.058;21.618;2023-03-01T11:09:30;36.40;;;12.30;;
78222;SDS011;67497;53.058;21.618;2023-03-01T11:11:39;41.95;;;13.77;;
78222;SDS011;67497;53.058;21.618;2023-03-01T11:13:49;41.03;;;13.25;;
78222;SDS011;67497;53.058;21.618;2023-03-01T11:15:59;47.75;;;13.73;;
78222;SDS011;67497;53.058;21.618;2023-03-01T11:18:05;41.33;;;13.75;;
78222;SDS011;67497;53.058;21.618;2023-03-01T11:22:29;40.08;;;12.77;;
78222;SDS011;67497;53.058;21.618;2023-03-01T11:27:04;38.13;;;11.10;;
78222;SDS011;67497;53.058;21.618;2023-03-01T11:31:56;40.50;;;12.15;;
78222;SDS011;67497;53.058;21.618;2023-03-01T11:40:37;36.83;;;11.75;;
78222;SDS011;67497;53.058;21.618;2023-03-01T11:44:58;29.15;;;12.45;;
78222;SDS011;67497;53.058;21.618;2023-03-01T11:52:00;40.97;;;11.73;;
78222;SDS011;67497;53.058;21.618;2023-03-01T11:57:35;36.72;;;11.93;;
78222;SDS011;67497;53.058;21.618;2023-03-01T12:06:49;34.70;;;11.65;;
78222;SDS011;67497;53.058;21.618;2023-03-01T12:09:01;32.10;;;10.40;;
78222;SDS011;67497;53.058;21.618;2023-03-01T12:13:21;33.00;;;11.85;;
78222;SDS011;67497;53.058;21.618;2023-03-01T12:15:40;36.30;;;11.57;;
78222;SDS011;67497;53.058;21.618;2023-03-01T12:22:32;34.20;;;11.20;;
78222;SDS011;67497;53.058;21.618;2023-03-01T12:27:29;33.17;;;11.43;;
78222;SDS011;67497;53.058;21.618;2023-03-01T12:32:23;28.88;;;10.18;;
78222;SDS011;67497;53.058;21.618;2023-03-01T12:37:10;36.08;;;10.57;;
78222;SDS011;67497;53.058;21.618;2023-03-01T12:50:57;26.10;;;11.23;;
78222;SDS011;67497;53.058;21.618;2023-03-01T12:53:01;28.20;;;10.57;;
78222;SDS011;67497;53.058;21.618;2023-03-01T12:55:02;33.45;;;10.13;;
78222;SDS011;67497;53.058;21.618;2023-03-01T12:57:29;27.02;;;10.70;;
78222;SDS011;67497;53.058;21.618;2023-03-01T13:06:20;33.42;;;12.18;;
78222;SDS011;67497;53.058;21.618;2023-03-01T13:08:31;35.42;;;10.63;;
78222;SDS011;67497;53.058;21.618;2023-03-01T13:10:47;28.38;;;9.68;;
78222;SDS011;67497;53.058;21.618;2023-03-01T13:14:57;25.52;;;9.55;;
78222;SDS011;67497;53.058;21.618;2023-03-01T13:16:57;28.13;;;10.68;;
78222;SDS011;67497;53.058;21.618;2023-03-01T13:19:15;33.90;;;10.35;;
78222;SDS011;67497;53.058;21.618;2023-03-01T13:21:29;26.85;;;10.00;;
78222;SDS011;67497;53.058;21.618;2023-03-01T13:23:33;27.05;;;9.85;;
78222;SDS011;67497;53.058;21.618;2023-03-01T13:25:59;28.67;;;9.85;;
78222;SDS011;67497;53.058;21.618;2023-03-01T13:28:35;30.17;;;10.43;;
78222;SDS011;67497;53.058;21.618;2023-03-01T13:32:37;31.25;;;10.27;;
78222;SDS011;67497;53.058;21.618;2023-03-01T13:34:40;37.38;;;10.48;;